createdAt,value
2017-01-10T00:00:36.916Z,0
2017-01-10T00:01:17.429Z,0
2017-01-10T00:01:57.999Z,0
2017-01-10T00:02:38.480Z,0
2017-01-10T00:03:19.013Z,0
2017-01-10T00:03:59.527Z,0
2017-01-10T00:04:40.068Z,0
2017-01-10T00:05:20.619Z,0
2017-01-10T00:06:01.150Z,0
2017-01-10T00:06:41.822Z,0
2017-01-10T00:07:22.213Z,0
2017-01-10T00:08:02.723Z,0
2017-01-10T00:08:43.260Z,0
2017-01-10T00:09:23.931Z,0
2017-01-10T00:10:04.475Z,0
2017-01-10T00:10:45.099Z,0
2017-01-10T00:11:25.538Z,0
2017-01-10T00:12:06.103Z,0
2017-01-10T00:12:46.978Z,0
2017-01-10T00:13:27.540Z,0
2017-01-10T00:14:08.099Z,0
2017-01-10T00:14:48.594Z,0
2017-01-10T00:15:29.146Z,0
2017-01-10T00:16:09.712Z,0
2017-01-10T00:16:50.247Z,0
2017-01-10T00:17:30.761Z,0
2017-01-10T00:18:11.247Z,0
2017-01-10T00:18:51.768Z,0
2017-01-10T00:19:32.393Z,0
2017-01-10T00:20:12.987Z,0
2017-01-10T00:20:53.571Z,0
2017-01-10T00:21:34.025Z,0
2017-01-10T00:22:14.583Z,0
2017-01-10T00:22:55.108Z,0
2017-01-10T00:23:35.655Z,0
2017-01-10T00:24:16.196Z,0
2017-01-10T00:24:57.029Z,0
2017-01-10T00:25:37.460Z,0
2017-01-10T00:26:18.311Z,0
2017-01-10T00:26:58.882Z,0
2017-01-10T00:27:39.326Z,0
2017-01-10T00:28:19.863Z,0
2017-01-10T00:29:00.424Z,0
2017-01-10T00:29:40.957Z,0
2017-01-10T00:30:21.413Z,0
2017-01-10T00:31:01.952Z,0
2017-01-10T00:31:42.517Z,0
2017-01-10T00:32:23.073Z,0
2017-01-10T00:33:03.661Z,0
2017-01-10T00:33:44.174Z,0
2017-01-10T00:34:24.732Z,0
2017-01-10T00:35:05.267Z,0
2017-01-10T00:35:45.790Z,0
2017-01-10T00:36:26.267Z,0
2017-01-10T00:37:06.942Z,0
2017-01-10T00:37:47.389Z,0
2017-01-10T00:38:28.335Z,0
2017-01-10T00:39:08.833Z,0
2017-01-10T00:39:49.314Z,0
2017-01-10T00:40:29.909Z,0
2017-01-10T00:41:10.456Z,0
2017-01-10T00:41:51.038Z,0
2017-01-10T00:42:31.529Z,0
2017-01-10T00:43:12.015Z,0
2017-01-10T00:43:52.744Z,0
2017-01-10T00:44:33.396Z,0
2017-01-10T00:45:14.543Z,0
2017-01-10T00:45:55.119Z,0
2017-01-10T00:46:35.698Z,0
2017-01-10T00:47:16.216Z,0
2017-01-10T00:47:56.740Z,0
2017-01-10T00:48:37.258Z,0
2017-01-10T00:49:18.019Z,0
2017-01-10T00:49:58.555Z,0
2017-01-10T00:50:39.255Z,0
2017-01-10T00:51:19.813Z,0
2017-01-10T00:52:00.359Z,0
2017-01-10T00:52:40.878Z,0
2017-01-10T00:53:21.390Z,0
2017-01-10T00:54:01.940Z,0
2017-01-10T00:54:42.521Z,0
2017-01-10T00:55:23.119Z,0
2017-01-10T00:56:03.772Z,0
2017-01-10T00:56:44.575Z,0
2017-01-10T00:57:24.854Z,0
2017-01-10T00:58:05.369Z,0
2017-01-10T00:58:45.899Z,0
2017-01-10T00:59:26.468Z,0
2017-01-10T01:00:06.999Z,0
2017-01-10T01:00:47.532Z,0
2017-01-10T01:01:28.066Z,0
2017-01-10T01:02:08.674Z,0
2017-01-10T01:02:49.224Z,0
2017-01-10T01:03:29.784Z,0
2017-01-10T01:04:10.408Z,0
2017-01-10T01:04:50.925Z,0
2017-01-10T01:05:31.437Z,0
2017-01-10T01:06:11.972Z,0
2017-01-10T01:06:52.623Z,0
2017-01-10T01:07:33.113Z,0
2017-01-10T01:08:14.084Z,0
2017-01-10T01:08:54.538Z,0
2017-01-10T01:09:35.324Z,0
2017-01-10T01:10:15.823Z,0
2017-01-10T01:10:56.365Z,0
2017-01-10T01:11:36.914Z,0
2017-01-10T01:12:17.456Z,0
2017-01-10T01:12:58.040Z,0
2017-01-10T01:13:38.576Z,0
2017-01-10T01:14:19.146Z,0
2017-01-10T01:14:59.808Z,0
2017-01-10T01:15:40.759Z,0
2017-01-10T01:16:21.324Z,0
2017-01-10T01:17:01.804Z,0
2017-01-10T01:17:42.413Z,0
2017-01-10T01:18:22.901Z,0
2017-01-10T01:19:03.458Z,0
2017-01-10T01:19:43.990Z,0
2017-01-10T01:20:24.613Z,0
2017-01-10T01:21:05.442Z,0
2017-01-10T01:21:46.076Z,0
2017-01-10T01:22:26.661Z,0
2017-01-10T01:23:07.186Z,0
2017-01-10T01:23:47.719Z,0
2017-01-10T01:24:28.271Z,0
2017-01-10T01:25:08.789Z,0
2017-01-10T01:25:49.385Z,0
2017-01-10T01:26:29.937Z,0
2017-01-10T01:27:10.570Z,0
2017-01-10T01:27:51.487Z,0
2017-01-10T01:28:32.045Z,0
2017-01-10T01:29:12.618Z,0
2017-01-10T01:29:53.135Z,0
2017-01-10T01:30:33.687Z,0
2017-01-10T01:31:14.193Z,0
2017-01-10T01:31:54.741Z,0
2017-01-10T01:32:35.269Z,0
2017-01-10T01:33:15.879Z,0
2017-01-10T01:33:56.415Z,0
2017-01-10T01:34:37.287Z,0
2017-01-10T01:35:18.395Z,0
2017-01-10T01:35:59.378Z,0
2017-01-10T01:36:39.698Z,0
2017-01-10T01:37:20.233Z,0
2017-01-10T01:38:00.746Z,0
2017-01-10T01:38:41.436Z,0
2017-01-10T01:39:22.025Z,0
2017-01-10T01:40:02.650Z,0
2017-01-10T01:40:43.197Z,0
2017-01-10T01:41:23.748Z,0
2017-01-10T01:42:04.288Z,0
2017-01-10T01:42:44.766Z,0
2017-01-10T01:43:25.341Z,0
2017-01-10T01:44:05.871Z,0
2017-01-10T01:44:46.424Z,0
2017-01-10T01:45:27.288Z,0
2017-01-10T01:46:07.903Z,0
2017-01-10T01:46:48.438Z,0
2017-01-10T01:47:28.942Z,0
2017-01-10T01:48:09.521Z,0
2017-01-10T01:48:50.023Z,0
2017-01-10T01:49:30.575Z,0
2017-01-10T01:50:11.036Z,0
2017-01-10T01:50:51.653Z,0
2017-01-10T01:51:32.264Z,0
2017-01-10T01:52:13.015Z,0
2017-01-10T01:52:53.534Z,0
2017-01-10T01:53:34.100Z,0
2017-01-10T01:54:14.684Z,0
2017-01-10T01:54:55.226Z,0
2017-01-10T01:55:35.684Z,0
2017-01-10T01:56:16.207Z,0
2017-01-10T01:56:56.770Z,0
2017-01-10T01:57:37.304Z,0
2017-01-10T01:58:17.855Z,0
2017-01-10T01:58:58.410Z,0
2017-01-10T01:59:38.954Z,0
2017-01-10T02:00:19.484Z,0
2017-01-10T02:01:00.000Z,0
2017-01-10T02:01:40.563Z,0
2017-01-10T02:02:23.927Z,0
2017-01-10T02:03:04.447Z,0
2017-01-10T02:03:44.983Z,0
2017-01-10T02:04:25.664Z,0
2017-01-10T02:05:06.229Z,0
2017-01-10T02:05:46.840Z,0
2017-01-10T02:06:27.403Z,0
2017-01-10T02:07:08.173Z,0
2017-01-10T02:07:49.000Z,0
2017-01-10T02:08:29.510Z,0
2017-01-10T02:09:10.064Z,0
2017-01-10T02:09:50.559Z,0
2017-01-10T02:10:31.054Z,0
2017-01-10T02:11:11.640Z,0
2017-01-10T02:11:52.179Z,0
2017-01-10T02:12:32.842Z,0
2017-01-10T02:13:13.634Z,0
2017-01-10T02:13:54.437Z,0
2017-01-10T02:14:34.922Z,0
2017-01-10T02:15:15.507Z,0
2017-01-10T02:15:59.590Z,0
2017-01-10T02:16:40.184Z,0
2017-01-10T02:17:20.744Z,0
2017-01-10T02:18:01.322Z,0
2017-01-10T02:18:41.800Z,0
2017-01-10T02:19:22.338Z,0
2017-01-10T02:20:02.892Z,0
2017-01-10T02:20:43.415Z,0
2017-01-10T02:21:23.951Z,0
2017-01-10T02:22:04.724Z,0
2017-01-10T02:22:45.524Z,0
2017-01-10T02:23:26.388Z,0
2017-01-10T02:24:07.360Z,0
2017-01-10T02:24:47.918Z,0
2017-01-10T02:25:28.450Z,0
2017-01-10T02:26:08.967Z,0
2017-01-10T02:26:49.482Z,0
2017-01-10T02:27:29.991Z,0
2017-01-10T02:28:10.540Z,0
2017-01-10T02:28:51.060Z,0
2017-01-10T02:29:31.593Z,0
2017-01-10T02:30:12.158Z,0
2017-01-10T02:30:52.807Z,0
2017-01-10T02:31:33.217Z,0
2017-01-10T02:32:13.737Z,0
2017-01-10T02:32:54.328Z,0
2017-01-10T02:33:34.836Z,0
2017-01-10T02:34:15.416Z,0
2017-01-10T02:34:55.956Z,0
2017-01-10T02:35:36.465Z,0
2017-01-10T02:36:16.955Z,0
2017-01-10T02:36:57.472Z,0
2017-01-10T02:37:38.008Z,0
2017-01-10T02:38:18.539Z,0
2017-01-10T02:38:59.083Z,0
2017-01-10T02:39:39.618Z,0
2017-01-10T02:40:20.194Z,0
2017-01-10T02:41:00.723Z,0
2017-01-10T02:41:41.220Z,0
2017-01-10T02:42:21.835Z,0
2017-01-10T02:43:02.365Z,0
2017-01-10T02:43:42.853Z,0
2017-01-10T02:44:23.402Z,0
2017-01-10T02:45:03.921Z,0
2017-01-10T02:45:44.504Z,0
2017-01-10T02:46:25.106Z,0
2017-01-10T02:47:05.543Z,0
2017-01-10T02:47:46.114Z,0
2017-01-10T02:48:26.658Z,0
2017-01-10T02:49:07.232Z,0
2017-01-10T02:49:47.709Z,0
2017-01-10T02:50:28.279Z,0
2017-01-10T02:51:08.896Z,0
2017-01-10T02:51:49.388Z,0
2017-01-10T02:52:30.139Z,0
2017-01-10T02:53:10.680Z,0
2017-01-10T02:53:51.212Z,0
2017-01-10T02:54:31.720Z,0
2017-01-10T02:55:12.287Z,0
2017-01-10T02:55:52.842Z,0
2017-01-10T02:56:33.361Z,0
2017-01-10T02:57:13.884Z,0
2017-01-10T02:57:54.548Z,0
2017-01-10T02:58:35.171Z,0
2017-01-10T02:59:15.798Z,0
2017-01-10T02:59:56.322Z,0
2017-01-10T03:00:36.870Z,0
2017-01-10T03:01:17.500Z,0
2017-01-10T03:01:58.050Z,0
2017-01-10T03:02:38.559Z,0
2017-01-10T03:03:19.078Z,0
2017-01-10T03:03:59.625Z,0
2017-01-10T03:04:40.249Z,0
2017-01-10T03:05:20.780Z,0
2017-01-10T03:06:01.258Z,0
2017-01-10T03:06:41.772Z,0
2017-01-10T03:07:22.327Z,0
2017-01-10T03:08:02.888Z,0
2017-01-10T03:08:43.441Z,0
2017-01-10T03:09:23.936Z,0
2017-01-10T03:10:04.596Z,0
2017-01-10T03:10:45.203Z,0
2017-01-10T03:11:25.733Z,0
2017-01-10T03:12:06.206Z,0
2017-01-10T03:12:46.708Z,0
2017-01-10T03:13:27.222Z,0
2017-01-10T03:14:07.804Z,0
2017-01-10T03:14:48.311Z,0
2017-01-10T03:15:28.890Z,0
2017-01-10T03:16:09.406Z,0
2017-01-10T03:16:50.157Z,0
2017-01-10T03:17:30.644Z,0
2017-01-10T03:18:11.201Z,0
2017-01-10T03:18:51.724Z,0
2017-01-10T03:19:32.245Z,0
2017-01-10T03:20:12.776Z,0
2017-01-10T03:20:53.329Z,0
2017-01-10T03:21:33.872Z,0
2017-01-10T03:22:14.448Z,0
2017-01-10T03:22:55.129Z,0
2017-01-10T03:23:35.658Z,0
2017-01-10T03:24:16.180Z,0
2017-01-10T03:24:56.654Z,0
2017-01-10T03:25:37.195Z,0
2017-01-10T03:26:17.691Z,0
2017-01-10T03:26:58.262Z,0
2017-01-10T03:27:38.801Z,0
2017-01-10T03:28:19.384Z,0
2017-01-10T03:28:59.928Z,0
2017-01-10T03:29:40.460Z,0
2017-01-10T03:30:21.049Z,0
2017-01-10T03:31:01.549Z,0
2017-01-10T03:31:42.085Z,0
2017-01-10T03:32:22.584Z,0
2017-01-10T03:33:03.174Z,0
2017-01-10T03:33:43.683Z,0
2017-01-10T03:34:24.177Z,0
2017-01-10T03:35:04.805Z,0
2017-01-10T03:35:45.399Z,0
2017-01-10T03:36:25.920Z,0
2017-01-10T03:37:06.428Z,0
2017-01-10T03:37:46.965Z,0
2017-01-10T03:38:27.520Z,0
2017-01-10T03:39:08.021Z,0
2017-01-10T03:39:48.538Z,0
2017-01-10T03:40:29.100Z,0
2017-01-10T03:41:09.657Z,0
2017-01-10T03:41:50.140Z,0
2017-01-10T03:42:30.709Z,0
2017-01-10T03:43:11.217Z,0
2017-01-10T03:43:51.801Z,0
2017-01-10T03:44:32.346Z,0
2017-01-10T03:45:12.888Z,0
2017-01-10T03:45:53.435Z,0
2017-01-10T03:46:33.945Z,0
2017-01-10T03:47:14.480Z,0
2017-01-10T03:47:55.074Z,0
2017-01-10T03:48:35.663Z,0
2017-01-10T03:49:16.124Z,0
2017-01-10T03:49:56.678Z,0
2017-01-10T03:50:37.270Z,0
2017-01-10T03:51:17.810Z,0
2017-01-10T03:51:58.339Z,0
2017-01-10T03:52:38.873Z,0
2017-01-10T03:53:19.479Z,0
2017-01-10T03:53:59.989Z,0
2017-01-10T03:54:40.594Z,0
2017-01-10T03:55:21.130Z,0
2017-01-10T03:56:01.656Z,0
2017-01-10T03:56:42.172Z,0
2017-01-10T03:57:22.716Z,0
2017-01-10T03:58:03.292Z,0
2017-01-10T03:58:43.796Z,0
2017-01-10T03:59:24.314Z,0
2017-01-10T04:00:04.902Z,0
2017-01-10T04:00:46.515Z,0
2017-01-10T04:01:27.036Z,0
2017-01-10T04:02:07.552Z,0
2017-01-10T04:02:48.077Z,0
2017-01-10T04:03:28.601Z,0
2017-01-10T04:04:09.152Z,0
2017-01-10T04:04:49.687Z,0
2017-01-10T04:05:30.247Z,0
2017-01-10T04:06:10.788Z,0
2017-01-10T04:06:51.302Z,0
2017-01-10T04:07:31.830Z,0
2017-01-10T04:08:12.355Z,0
2017-01-10T04:08:52.933Z,0
2017-01-10T04:09:33.538Z,0
2017-01-10T04:10:14.107Z,0
2017-01-10T04:10:54.632Z,0
2017-01-10T04:11:35.218Z,0
2017-01-10T04:12:15.819Z,0
2017-01-10T04:12:56.293Z,0
2017-01-10T04:13:36.802Z,0
2017-01-10T04:14:17.333Z,0
2017-01-10T04:14:57.894Z,0
2017-01-10T04:15:38.427Z,0
2017-01-10T04:16:18.940Z,0
2017-01-10T04:16:59.488Z,0
2017-01-10T04:17:40.043Z,0
2017-01-10T04:18:20.583Z,0
2017-01-10T04:19:01.144Z,0
2017-01-10T04:19:41.662Z,0
2017-01-10T04:20:22.201Z,0
2017-01-10T04:21:02.767Z,0
2017-01-10T04:21:43.283Z,0
2017-01-10T04:22:23.845Z,0
2017-01-10T04:23:04.387Z,0
2017-01-10T04:23:44.942Z,0
2017-01-10T04:24:25.454Z,0
2017-01-10T04:25:06.203Z,0
2017-01-10T04:25:46.692Z,0
2017-01-10T04:26:27.282Z,0
2017-01-10T04:27:07.783Z,0
2017-01-10T04:27:48.353Z,0
2017-01-10T04:28:28.898Z,0
2017-01-10T04:29:09.396Z,0
2017-01-10T04:29:49.959Z,0
2017-01-10T04:30:30.538Z,0
2017-01-10T04:31:11.236Z,0
2017-01-10T04:31:51.715Z,0
2017-01-10T04:32:32.242Z,0
2017-01-10T04:33:12.805Z,0
2017-01-10T04:33:53.360Z,0
2017-01-10T04:34:33.895Z,0
2017-01-10T04:35:14.407Z,0
2017-01-10T04:35:54.968Z,0
2017-01-10T04:36:35.497Z,0
2017-01-10T04:37:16.082Z,0
2017-01-10T04:37:56.700Z,0
2017-01-10T04:38:37.219Z,0
2017-01-10T04:39:17.729Z,0
2017-01-10T04:39:58.273Z,0
2017-01-10T04:40:38.812Z,0
2017-01-10T04:41:19.353Z,0
2017-01-10T04:41:59.912Z,0
2017-01-10T04:42:40.482Z,0
2017-01-10T04:43:21.023Z,0
2017-01-10T04:44:01.545Z,0
2017-01-10T04:44:42.115Z,0
2017-01-10T04:45:22.633Z,0
2017-01-10T04:46:03.225Z,0
2017-01-10T04:46:43.731Z,0
2017-01-10T04:47:24.257Z,0
2017-01-10T04:48:04.819Z,0
2017-01-10T04:48:45.373Z,0
2017-01-10T04:49:25.883Z,0
2017-01-10T04:50:06.392Z,0
2017-01-10T04:50:46.923Z,0
2017-01-10T04:51:27.481Z,0
2017-01-10T04:52:08.028Z,0
2017-01-10T04:52:48.544Z,0
2017-01-10T04:53:29.098Z,0
2017-01-10T04:54:09.653Z,0
2017-01-10T04:54:50.178Z,0
2017-01-10T04:55:30.712Z,0
2017-01-10T04:56:11.258Z,0
2017-01-10T04:56:51.818Z,0
2017-01-10T04:57:32.354Z,0
2017-01-10T04:58:12.921Z,0
2017-01-10T04:58:53.646Z,0
2017-01-10T04:59:34.195Z,0
2017-01-10T05:00:14.848Z,0
2017-01-10T05:00:55.329Z,0
2017-01-10T05:01:35.894Z,0
2017-01-10T05:02:16.440Z,0
2017-01-10T05:02:56.948Z,0
2017-01-10T05:03:37.524Z,0
2017-01-10T05:04:18.032Z,0
2017-01-10T05:04:58.553Z,0
2017-01-10T05:05:39.087Z,0
2017-01-10T05:06:19.645Z,0
2017-01-10T05:07:00.214Z,0
2017-01-10T05:07:40.720Z,0
2017-01-10T05:08:21.301Z,0
2017-01-10T05:09:01.808Z,0
2017-01-10T05:09:42.291Z,0
2017-01-10T05:10:22.877Z,0
2017-01-10T05:11:03.437Z,0
2017-01-10T05:11:43.904Z,0
2017-01-10T05:12:24.443Z,0
2017-01-10T05:13:04.929Z,0
2017-01-10T05:13:45.474Z,0
2017-01-10T05:14:26.005Z,0
2017-01-10T05:15:06.527Z,0
2017-01-10T05:15:47.090Z,0
2017-01-10T05:16:27.649Z,0
2017-01-10T05:17:08.159Z,0
2017-01-10T05:17:48.743Z,0
2017-01-10T05:18:29.271Z,0
2017-01-10T05:19:09.821Z,0
2017-01-10T05:19:50.388Z,0
2017-01-10T05:20:30.936Z,0
2017-01-10T05:21:11.513Z,0
2017-01-10T05:21:52.017Z,0
2017-01-10T05:22:32.574Z,0
2017-01-10T05:23:13.095Z,0
2017-01-10T05:23:53.582Z,0
2017-01-10T05:24:34.090Z,0
2017-01-10T05:25:14.695Z,0
2017-01-10T05:25:55.231Z,0
2017-01-10T05:26:35.718Z,0
2017-01-10T05:27:16.243Z,0
2017-01-10T05:27:56.844Z,0
2017-01-10T05:28:37.369Z,0
2017-01-10T05:29:17.878Z,0
2017-01-10T05:29:58.406Z,0
2017-01-10T05:30:38.919Z,0
2017-01-10T05:31:19.486Z,0
2017-01-10T05:31:59.993Z,0
2017-01-10T05:32:40.551Z,0
2017-01-10T05:33:21.087Z,0
2017-01-10T05:34:01.665Z,0
2017-01-10T05:34:42.166Z,0
2017-01-10T05:35:22.711Z,0
2017-01-10T05:36:03.374Z,0
2017-01-10T05:36:43.887Z,0
2017-01-10T05:37:24.431Z,0
2017-01-10T05:38:04.907Z,0
2017-01-10T05:38:45.433Z,0
2017-01-10T05:39:25.960Z,0
2017-01-10T05:40:06.496Z,0
2017-01-10T05:40:47.029Z,0
2017-01-10T05:41:27.578Z,0
2017-01-10T05:42:08.153Z,0
2017-01-10T05:42:48.659Z,0
2017-01-10T05:43:29.148Z,0
2017-01-10T05:44:09.669Z,0
2017-01-10T05:44:50.209Z,0
2017-01-10T05:45:30.709Z,0
2017-01-10T05:46:11.249Z,0
2017-01-10T05:46:51.738Z,0
2017-01-10T05:47:32.325Z,0
2017-01-10T05:48:12.855Z,0
2017-01-10T05:48:53.398Z,0
2017-01-10T05:49:34.662Z,0
2017-01-10T05:50:15.242Z,0
2017-01-10T05:50:55.716Z,0
2017-01-10T05:51:36.276Z,0
2017-01-10T05:52:16.790Z,0
2017-01-10T05:52:57.331Z,0
2017-01-10T05:53:37.828Z,0
2017-01-10T05:54:18.336Z,0
2017-01-10T05:54:58.873Z,0
2017-01-10T05:55:39.493Z,0
2017-01-10T05:56:19.991Z,0
2017-01-10T05:57:00.529Z,0
2017-01-10T05:57:41.078Z,0
2017-01-10T05:58:21.627Z,0
2017-01-10T05:59:02.125Z,0
2017-01-10T05:59:42.692Z,0
2017-01-10T06:00:23.246Z,0
2017-01-10T06:01:03.744Z,0
2017-01-10T06:01:44.249Z,0
2017-01-10T06:02:24.780Z,0
2017-01-10T06:03:05.302Z,0
2017-01-10T06:03:45.848Z,0
2017-01-10T06:04:26.375Z,0
2017-01-10T06:05:06.948Z,0
2017-01-10T06:05:47.480Z,0
2017-01-10T06:06:28.020Z,0
2017-01-10T06:07:08.518Z,0
2017-01-10T06:07:49.060Z,0
2017-01-10T06:08:29.607Z,0
2017-01-10T06:09:10.158Z,0
2017-01-10T06:09:50.691Z,0
2017-01-10T06:10:31.191Z,0
2017-01-10T06:11:11.732Z,0
2017-01-10T06:11:52.291Z,0
2017-01-10T06:12:32.877Z,0
2017-01-10T06:13:13.379Z,0
2017-01-10T06:13:53.945Z,0
2017-01-10T06:14:34.485Z,0
2017-01-10T06:15:15.013Z,0
2017-01-10T06:15:55.560Z,0
2017-01-10T06:16:36.097Z,0
2017-01-10T06:17:16.633Z,0
2017-01-10T06:17:57.163Z,0
2017-01-10T06:18:37.712Z,0
2017-01-10T06:19:18.250Z,0
2017-01-10T06:19:58.807Z,0
2017-01-10T06:20:39.329Z,0
2017-01-10T06:21:19.905Z,0
2017-01-10T06:22:00.420Z,0
2017-01-10T06:22:40.987Z,0
2017-01-10T06:23:21.543Z,0
2017-01-10T06:24:02.066Z,0
2017-01-10T06:24:42.581Z,0
2017-01-10T06:25:23.146Z,0
2017-01-10T06:26:03.626Z,0
2017-01-10T06:26:44.146Z,0
2017-01-10T06:27:24.702Z,0
2017-01-10T06:28:05.238Z,0
2017-01-10T06:28:45.884Z,0
2017-01-10T06:29:26.475Z,0
2017-01-10T06:30:06.991Z,0
2017-01-10T06:30:47.526Z,0
2017-01-10T06:31:28.085Z,0
2017-01-10T06:32:08.660Z,0
2017-01-10T06:32:49.178Z,0
2017-01-10T06:33:29.705Z,0
2017-01-10T06:34:10.249Z,0
2017-01-10T06:34:50.815Z,0
2017-01-10T06:35:31.391Z,0
2017-01-10T06:36:11.918Z,0
2017-01-10T06:36:52.455Z,0
2017-01-10T06:37:33.032Z,0
2017-01-10T06:38:13.551Z,0
2017-01-10T06:38:54.078Z,0
2017-01-10T06:39:34.604Z,0
2017-01-10T06:40:15.161Z,0
2017-01-10T06:40:55.694Z,0
2017-01-10T06:41:36.248Z,0
2017-01-10T06:42:16.809Z,0
2017-01-10T06:42:57.309Z,0
2017-01-10T06:43:37.824Z,0
2017-01-10T06:44:18.387Z,0
2017-01-10T06:44:58.897Z,0
2017-01-10T06:45:39.454Z,0
2017-01-10T06:46:19.975Z,0
2017-01-10T06:47:00.572Z,0
2017-01-10T06:47:41.116Z,0
2017-01-10T06:48:21.665Z,0
2017-01-10T06:49:02.259Z,0
2017-01-10T06:49:42.773Z,0
2017-01-10T06:50:23.378Z,0
2017-01-10T06:51:04.016Z,0
2017-01-10T06:51:44.560Z,0
2017-01-10T06:52:25.079Z,0
2017-01-10T06:53:05.619Z,0
2017-01-10T06:53:46.174Z,0
2017-01-10T06:54:26.764Z,0
2017-01-10T06:55:07.306Z,0
2017-01-10T06:55:47.857Z,0
2017-01-10T06:56:28.382Z,0
2017-01-10T06:57:08.946Z,0
2017-01-10T06:57:49.488Z,0
2017-01-10T06:58:30.003Z,0
2017-01-10T06:59:10.542Z,0
2017-01-10T06:59:51.108Z,0
2017-01-10T07:00:31.689Z,0
2017-01-10T07:01:12.190Z,0
2017-01-10T07:01:52.728Z,0
2017-01-10T07:02:33.328Z,0
2017-01-10T07:03:13.862Z,0
2017-01-10T07:03:54.466Z,0
2017-01-10T07:04:34.977Z,0
2017-01-10T07:05:15.538Z,0
2017-01-10T07:05:56.072Z,0
2017-01-10T07:06:36.631Z,0
2017-01-10T07:07:17.169Z,0
2017-01-10T07:07:57.757Z,0
2017-01-10T07:08:38.259Z,0
2017-01-10T07:09:18.848Z,0
2017-01-10T07:09:59.390Z,0
2017-01-10T07:10:39.861Z,0
2017-01-10T07:11:20.405Z,0
2017-01-10T07:12:00.945Z,0
2017-01-10T07:12:41.499Z,0
2017-01-10T07:13:22.038Z,0
2017-01-10T07:14:02.554Z,0
2017-01-10T07:14:43.080Z,0
2017-01-10T07:15:23.638Z,0
2017-01-10T07:16:04.189Z,0
2017-01-10T07:16:44.728Z,0
2017-01-10T07:17:25.288Z,0
2017-01-10T07:18:05.839Z,0
2017-01-10T07:18:46.373Z,0
2017-01-10T07:19:26.918Z,0
2017-01-10T07:20:07.442Z,0
2017-01-10T07:20:47.968Z,0
2017-01-10T07:21:28.564Z,0
2017-01-10T07:22:09.090Z,0
2017-01-10T07:22:49.631Z,0
2017-01-10T07:23:30.149Z,0
2017-01-10T07:24:10.698Z,0
2017-01-10T07:24:51.258Z,0
2017-01-10T07:25:31.814Z,0
2017-01-10T07:26:12.351Z,0
2017-01-10T07:26:52.898Z,0
2017-01-10T07:27:33.442Z,0
2017-01-10T07:28:14.012Z,0
2017-01-10T07:28:54.544Z,5
2017-01-10T07:29:35.088Z,5
2017-01-10T07:30:15.599Z,5
2017-01-10T07:30:56.124Z,5
2017-01-10T07:31:36.671Z,5
2017-01-10T07:32:17.253Z,5
2017-01-10T07:32:57.758Z,5
2017-01-10T07:33:38.315Z,5
2017-01-10T07:34:18.863Z,5
2017-01-10T07:34:59.424Z,5
2017-01-10T07:35:40.004Z,5
2017-01-10T07:36:20.495Z,5
2017-01-10T07:37:01.018Z,5
2017-01-10T07:37:41.520Z,5
2017-01-10T07:38:22.068Z,5
2017-01-10T07:39:02.576Z,5
2017-01-10T07:39:43.101Z,5
2017-01-10T07:40:23.684Z,5
2017-01-10T07:41:04.192Z,10
2017-01-10T07:41:44.722Z,10
2017-01-10T07:42:25.331Z,10
2017-01-10T07:43:05.836Z,10
2017-01-10T07:43:46.360Z,10
2017-01-10T07:44:26.897Z,10
2017-01-10T07:45:07.425Z,10
2017-01-10T07:45:47.972Z,10
2017-01-10T07:48:01.518Z,10
2017-01-10T07:48:42.071Z,10
2017-01-10T07:49:22.576Z,10
2017-01-10T07:50:03.102Z,15
2017-01-10T07:50:44.463Z,15
2017-01-10T07:51:24.178Z,15
2017-01-10T07:52:04.699Z,15
2017-01-10T07:52:45.279Z,15
2017-01-10T07:53:25.782Z,15
2017-01-10T07:54:06.305Z,15
2017-01-10T07:54:47.014Z,15
2017-01-10T07:55:27.530Z,15
2017-01-10T07:56:08.052Z,20
2017-01-10T07:56:48.554Z,20
2017-01-10T07:57:29.154Z,20
2017-01-10T07:58:09.598Z,20
2017-01-10T07:58:50.133Z,20
2017-01-10T07:59:30.720Z,20
2017-01-10T08:00:11.254Z,20
2017-01-10T08:00:51.821Z,20
2017-01-10T08:01:32.340Z,25
2017-01-10T08:02:12.858Z,25
2017-01-10T08:02:53.436Z,25
2017-01-10T08:03:33.982Z,25
2017-01-10T08:04:14.526Z,25
2017-01-10T08:04:55.069Z,25
2017-01-10T08:05:35.640Z,30
2017-01-10T08:06:16.175Z,30
2017-01-10T08:06:56.737Z,30
2017-01-10T08:07:37.305Z,30
2017-01-10T08:08:17.825Z,30
2017-01-10T08:08:58.356Z,35
2017-01-10T08:09:38.834Z,35
2017-01-10T08:10:19.389Z,35
2017-01-10T08:10:59.904Z,35
2017-01-10T08:11:40.419Z,35
2017-01-10T08:12:20.991Z,40
2017-01-10T08:13:01.551Z,35
2017-01-10T08:13:42.070Z,35
2017-01-10T08:14:22.604Z,40
2017-01-10T08:15:03.165Z,40
2017-01-10T08:15:43.678Z,40
2017-01-10T08:16:24.209Z,40
2017-01-10T08:17:04.737Z,45
2017-01-10T08:17:45.298Z,45
2017-01-10T08:18:25.796Z,45
2017-01-10T08:19:06.343Z,45
2017-01-10T08:19:46.968Z,45
2017-01-10T08:20:27.522Z,45
2017-01-10T08:21:07.953Z,45
2017-01-10T08:21:48.466Z,45
2017-01-10T08:22:29.018Z,45
2017-01-10T08:23:09.567Z,50
2017-01-10T08:23:50.060Z,50
2017-01-10T08:24:30.615Z,50
2017-01-10T08:25:11.165Z,50
2017-01-10T08:25:51.717Z,50
2017-01-10T08:26:32.252Z,55
2017-01-10T08:27:12.765Z,55
2017-01-10T08:27:53.322Z,55
2017-01-10T08:28:33.812Z,55
2017-01-10T08:29:14.369Z,60
2017-01-10T08:29:54.889Z,60
2017-01-10T08:30:35.410Z,60
2017-01-10T08:31:15.949Z,60
2017-01-10T08:31:56.512Z,65
2017-01-10T08:32:37.002Z,60
2017-01-10T08:33:17.558Z,60
2017-01-10T08:33:58.102Z,65
2017-01-10T08:34:38.652Z,65
2017-01-10T08:35:19.131Z,65
2017-01-10T08:35:59.615Z,65
2017-01-10T08:36:40.191Z,65
2017-01-10T08:37:20.744Z,70
2017-01-10T08:38:01.289Z,70
2017-01-10T08:38:41.811Z,70
2017-01-10T08:39:22.368Z,70
2017-01-10T08:40:02.944Z,75
2017-01-10T08:40:43.505Z,75
2017-01-10T08:41:24.062Z,75
2017-01-10T08:42:04.784Z,80
2017-01-10T08:42:45.268Z,80
2017-01-10T08:43:25.812Z,80
2017-01-10T08:44:06.348Z,85
2017-01-10T08:44:46.845Z,85
2017-01-10T08:45:27.402Z,85
2017-01-10T08:46:07.903Z,85
2017-01-10T08:46:48.485Z,90
2017-01-10T08:47:29.030Z,90
2017-01-10T08:48:09.532Z,90
2017-01-10T08:48:50.022Z,90
2017-01-10T08:49:30.578Z,90
2017-01-10T08:50:11.161Z,90
2017-01-10T08:50:51.640Z,95
2017-01-10T08:51:32.144Z,100
2017-01-10T08:52:12.726Z,100
2017-01-10T08:52:53.289Z,105
2017-01-10T08:53:33.801Z,105
2017-01-10T08:54:14.329Z,110
2017-01-10T08:54:54.848Z,110
2017-01-10T08:55:35.376Z,115
2017-01-10T08:56:15.944Z,115
2017-01-10T08:56:56.677Z,120
2017-01-10T08:57:37.202Z,120
2017-01-10T08:58:17.853Z,125
2017-01-10T08:58:58.412Z,125
2017-01-10T08:59:38.948Z,130
2017-01-10T09:00:19.525Z,130
2017-01-10T09:01:00.120Z,130
2017-01-10T09:01:40.633Z,130
2017-01-10T09:02:21.176Z,130
2017-01-10T09:03:01.704Z,130
2017-01-10T09:03:42.246Z,130
2017-01-10T09:04:22.800Z,130
2017-01-10T09:05:03.384Z,130
2017-01-10T09:05:43.913Z,130
2017-01-10T09:06:24.399Z,130
2017-01-10T09:07:04.915Z,130
2017-01-10T09:07:45.468Z,125
2017-01-10T09:08:25.989Z,125
2017-01-10T09:09:06.564Z,130
2017-01-10T09:09:47.068Z,130
2017-01-10T09:10:27.564Z,130
2017-01-10T09:11:08.119Z,130
2017-01-10T09:11:48.663Z,130
2017-01-10T09:12:29.218Z,130
2017-01-10T09:13:09.786Z,130
2017-01-10T09:13:50.310Z,130
2017-01-10T09:14:30.828Z,130
2017-01-10T09:15:11.348Z,130
2017-01-10T09:15:51.863Z,130
2017-01-10T09:16:32.390Z,130
2017-01-10T09:17:12.950Z,130
2017-01-10T09:17:53.475Z,130
2017-01-10T09:18:33.989Z,125
2017-01-10T09:19:14.509Z,120
2017-01-10T09:19:55.059Z,120
2017-01-10T09:20:35.591Z,120
2017-01-10T09:21:16.146Z,120
2017-01-10T09:21:56.641Z,115
2017-01-10T09:22:37.181Z,115
2017-01-10T09:23:17.747Z,115
2017-01-10T09:23:58.255Z,110
2017-01-10T09:24:38.787Z,110
2017-01-10T09:25:19.374Z,110
2017-01-10T09:25:59.894Z,110
2017-01-10T09:26:40.416Z,115
2017-01-10T09:27:20.939Z,115
2017-01-10T09:28:01.469Z,115
2017-01-10T09:28:42.013Z,115
2017-01-10T09:29:22.573Z,115
2017-01-10T09:30:03.133Z,115
2017-01-10T09:30:43.646Z,115
2017-01-10T09:31:24.201Z,115
2017-01-10T09:32:04.800Z,115
2017-01-10T09:32:45.211Z,115
2017-01-10T09:33:25.715Z,115
2017-01-10T09:34:06.295Z,115
2017-01-10T09:34:46.819Z,115
2017-01-10T09:35:27.336Z,115
2017-01-10T09:36:07.827Z,115
2017-01-10T09:36:48.343Z,120
2017-01-10T09:37:28.821Z,120
2017-01-10T09:38:09.360Z,120
2017-01-10T09:38:50.033Z,120
2017-01-10T09:39:30.553Z,125
2017-01-10T09:40:11.157Z,125
2017-01-10T09:40:51.674Z,125
2017-01-10T09:41:32.216Z,125
2017-01-10T09:42:12.717Z,125
2017-01-10T09:42:53.227Z,125
2017-01-10T09:43:33.748Z,125
2017-01-10T09:44:14.266Z,130
2017-01-10T09:44:55.117Z,130
2017-01-10T09:45:35.640Z,130
2017-01-10T09:46:16.212Z,130
2017-01-10T09:46:56.933Z,130
2017-01-10T09:47:37.311Z,130
2017-01-10T09:48:17.873Z,130
2017-01-10T09:48:58.386Z,135
2017-01-10T09:49:39.356Z,125
2017-01-10T09:50:19.852Z,120
2017-01-10T09:51:00.413Z,125
2017-01-10T09:51:40.943Z,130
2017-01-10T09:52:21.509Z,130
2017-01-10T09:53:02.031Z,125
2017-01-10T09:53:42.570Z,125
2017-01-10T09:54:23.090Z,125